Paul R Tregurtha — WYR4481 — position and weather

sailwx.info

Track history (hours):
 
Tides and Currents Weather Stations Pressure Air Temp Water Temp Dewpoint Dewpoint Depression Visibility Wind Speed Wind Dir Waves Ship Positions

Paul R Tregurtha

Owner: THE INTERLAKE STEAMSHIP COMPANY, Middleburg Heights, OH. More information available from US FCC via Universal Licensing System and Coast Guard Vessel Documentation Center.

Last reported at 2016-Sep-30 06:00 UTC. Time now 2016-Sep-30 09:58 UTC.
Position N 45°06' W 083°00'.

Length 309 m; draft 7.3 m.

Type: Cargo ship. MMSI: 366904940.

Wind from 070 at 20 knots

Waves 2.0 meters (7 feet)

Barometer 1027.6 mb
Air temperature 16.5 ° C
Visibility: greater than 10.8 NM
Water temperature 15.7 ° C

Date/timePositionNaut miles runAvg speedWind from/ knotsBaromVisibWave heightAir tempDewpointWater temp
2016-Sep-30 06:00N 45°06' W 083°00'4111.7 070 / 201027.610.8 2.016.5 15.7
2016-Sep-30 02:28N 45°40' W 083°32'1711.8
2016-Sep-30 01:00N 45°54' W 083°48'7 7.3 060 / 141029.2 17.5 17.5
2016-Sep-30 00:00N 46°00' W 083°54'812.9 070 / 91029.6 17.8 17.9
2016-Sep-29 23:20N 46°07' W 084°01'514.7
2016-Sep-29 23:00N 46°12' W 084°00'8 8.3 080 / 81029.6 18.5 17.7
2016-Sep-29 22:00N 46°12' W 084°12'610.6 040 / 51029.6 20.9 17.4
2016-Sep-29 21:27N 46°18' W 084°13'1 1.5
2016-Sep-29 21:00N 46°18' W 084°12'13 6.3 070 / 111029.2 21.2 17.4
2016-Sep-29 19:00N 46°30' W 084°18'4 4.1 050 / 71029.9 21.2 17.3
2016-Sep-29 18:00N 46°30' W 084°24'0 0.0 100 / 81030.1 20.9 17.4
2016-Sep-29 17:00N 46°30' W 084°24'4 4.1 080 / 91030.5 19.6 17.3
2016-Sep-29 16:00N 46°30' W 084°30'4 4.1 080 / 61030.5 17.4 17.2
2016-Sep-29 15:00N 46°30' W 084°36'7 7.3 100 / 61030.8 15.7 17.7
2016-Sep-29 14:00N 46°36' W 084°42'4 4.1 130 / 81030.5 15.0 17.8
2016-Sep-29 13:00N 46°36' W 084°48'1312.7 050 / 101029.8 14.4 17.7
2016-Sep-29 12:00N 46°48' W 084°54'1413.7 060 / 121029.527.0 1.515.4 17.3
2016-Sep-29 11:00N 46°54' W 085°12'1413.7 040 / 121029.1 15.8 17.0
2016-Sep-29 10:00N 47°00' W 085°30'1010.1 030 / 151028.8 14.7 16.1
2016-Sep-29 09:00N 47°06' W 085°42'6911.6 030 / 151028.427.0 1.015.0 16.4
2016-Sep-29 03:00N 47°30' W 087°18'1413.5 020 / 181028.1 14.1 16.4
2016-Sep-29 02:00N 47°36' W 087°36'1212.1 020 / 151027.4 13.4 14.8
2016-Sep-29 01:00N 47°36' W 087°54'1212.1 020 / 121027.1 13.5 17.3
2016-Sep-29 00:00N 47°36' W 088°12'1212.1 030 / 101027.1 13.6 16.8
2016-Sep-28 23:00N 47°36' W 088°30'1413.5 090 / 91026.1 13.8 16.3
2016-Sep-28 22:00N 47°30' W 088°48'8 8.1 030 / 91025.7 13.5 14.0
2016-Sep-28 21:00N 47°30' W 089°00'1212.2 050 / 71024.7 12.6 12.5
2016-Sep-28 20:00N 47°30' W 089°18'1413.6 020 / 101024.0 13.0 13.6
2016-Sep-28 19:00N 47°24' W 089°36'1212.2 040 / 131023.4 13.4 13.9
2016-Sep-28 18:00N 47°24' W 089°54'1413.6 030 / 121023.0 13.0 11.4
2016-Sep-28 17:00N 47°18' W 090°12'1212.2 020 / 151022.7 11.6 9.4
2016-Sep-28 16:00N 47°18' W 090°30'1010.1 020 / 141022.4 11.4 9.3
2016-Sep-28 15:00N 47°12' W 090°42'1212.2 010 / 121021.7 10.5 8.8
2016-Sep-28 14:00N 47°12' W 091°00'1413.6 360 / 161020.0 5.4 1.011.4 11.3
2016-Sep-28 13:00N 47°06' W 091°18'1010.1 1019.0 12.1 11.9
2016-Sep-28 12:00N 47°00' W 091°30'1413.7 360 / 171018.3 10.3 12.0
2016-Sep-28 11:00N 46°54' W 091°48'1010.2 340 / 151017.3 10.9 10.2
2016-Sep-28 10:00N 46°48' W 092°00'7 7.3 350 / 141016.3 12.0 13.2
2016-Sep-28 09:00N 46°42' W 092°06'3 5.1 1015.6 12.9 17.2
2016-Sep-28 08:28N 46°45' W 092°07'3 5.5
2016-Sep-28 08:00N 46°42' W 092°06'0 0.0 010 / 141014.6 12.6 16.8
2016-Sep-28 07:00N 46°42' W 092°06'0 0.0 350 / 181013.5 12.4 16.8
2016-Sep-28 06:00N 46°42' W 092°06'0 0.0 340 / 211012.5 12.1 16.9
2016-Sep-28 05:00N 46°42' W 092°06'0 0.0 350 / 201012.2 12.3 15.7
2016-Sep-28 04:00N 46°42' W 092°06'3 5.6 090 / 181011.5 11.8 15.7
2016-Sep-28 03:31N 46°45' W 092°07'3 5.0
2016-Sep-28 03:00N 46°42' W 092°06'3 3.9 340 / 141011.2 11.7 15.7
2016-Sep-28 02:19N 46°45' W 092°07'3 8.1
2016-Sep-28 02:00N 46°42' W 092°06'3 5.6 180 / 21010.8 11.7 15.6
2016-Sep-28 01:31N 46°45' W 092°07'3 5.0
2016-Sep-28 01:00N 46°42' W 092°06'0 0.0 020 / 51010.5 11.2 15.6
2016-Sep-28 00:00N 46°42' W 092°06'3 6.1 060 / 41009.8 11.4 15.5
2016-Sep-27 23:33N 46°45' W 092°07'3 6.2
2016-Sep-27 23:00N 46°48' W 092°06'0 0.0 010 / 61009.1 11.0 15.2
2016-Sep-27 22:00N 46°48' W 092°06'0 0.0 320 / 61008.5 10.2 14.3
2016-Sep-27 21:00N 46°48' W 092°06'0 0.0 280 / 61008.1 10.2 14.2
2016-Sep-27 20:00N 46°48' W 092°06'2 5.6 250 / 61007.5 11.6 14.0
2016-Sep-27 19:33N 46°46' W 092°06'2 4.3
2016-Sep-27 19:00N 46°48' W 092°06'0 0.0 300 / 81006.8 12.0 14.2
2016-Sep-27 18:00N 46°48' W 092°06'1413.7 300 / 111006.4 11.2 10.5
2016-Sep-27 17:00N 46°54' W 091°48'1010.2 290 / 121005.110.8 1.010.4 7.6
2016-Sep-27 16:00N 47°00' W 091°36'1514.5 280 / 141004.4 10.1 8.5
2016-Sep-27 15:00N 47°12' W 091°24'1010.1 310 / 171003.710.8 0.510.4 10.1
2016-Sep-27 14:00N 47°18' W 091°12'1413.6 340 / 121003.7 9.8 14.2
2016-Sep-27 13:00N 47°24' W 090°54'2110.6 310 / 171002.4 10.7 13.7
2016-Sep-27 11:00N 47°30' W 090°24'1212.2 310 / 24999.3 10.9 12.9
2016-Sep-27 10:00N 47°30' W 090°06'1212.2 310 / 22999.3 11.2 13.5
2016-Sep-27 09:00N 47°30' W 089°48'8 8.1 290 / 19999.0 11.8 14.1
2016-Sep-27 08:00N 47°30' W 089°36'1212.2 310 / 20998.310.8 3.012.3 14.7
2016-Sep-27 07:00N 47°30' W 089°18'1212.2 300 / 20998.010.8 2.512.4 14.0
2016-Sep-27 06:00N 47°30' W 089°00'8 8.1 270 / 17998.0 12.1 13.1
2016-Sep-27 05:00N 47°30' W 088°48'8 8.1 290 / 20997.610.8 4.512.3 14.4
2016-Sep-27 04:00N 47°30' W 088°36'8 8.1 270 / 21998.3 12.2 15.6
2016-Sep-27 03:00N 47°30' W 088°24'8 8.1 260 / 31997.6 12.2 18.1
2016-Sep-27 02:00N 47°30' W 088°12'8 8.1 260 / 27998.3 12.7 18.2
2016-Sep-27 01:00N 47°30' W 088°00'8 8.1 260 / 33997.6 12.8 18.0
2016-Sep-27 00:00N 47°30' W 087°48'8 8.1 250 / 30998.3 12.8 16.0
2016-Sep-26 23:00N 47°30' W 087°36'1010.1 230 / 25999.7 12.0 14.6
2016-Sep-26 22:00N 47°24' W 087°24'1010.1 240 / 32999.3 12.5 14.4
2016-Sep-26 21:00N 47°18' W 087°12'8 8.1 240 / 31999.310.8 4.513.2 18.1
2016-Sep-26 20:00N 47°18' W 087°00'1212.2 250 / 29999.3 12.3 17.9
2016-Sep-26 19:00N 47°18' W 086°42'6611.0 230 / 291000.010.8 3.012.4 17.5
2016-Sep-26 13:00N 46°54' W 085°12'1413.7 210 / 201003.7 15.0 17.5
2016-Sep-26 12:00N 46°48' W 084°54'1312.7 210 / 161004.7 15.8 17.9
2016-Sep-26 11:00N 46°36' W 084°48'1010.2 160 / 191005.4 14.9 18.5
2016-Sep-26 10:00N 46°30' W 084°36'8 8.3 130 / 151006.4 15.2 18.3
2016-Sep-26 09:00N 46°30' W 084°24'4 4.1 180 / 81007.5 14.2 18.7
2016-Sep-26 08:00N 46°30' W 084°18'6 6.0 140 / 121008.6 14.7 18.7
2016-Sep-26 07:00N 46°24' W 084°18'1010.2 140 / 121009.6 16.0 18.6
2016-Sep-26 06:00N 46°18' W 084°06'6 6.0 150 / 181011.0 14.8 18.7
2016-Sep-26 05:00N 46°12' W 084°06'1514.6 160 / 241011.6 17.3 18.7
2016-Sep-26 04:00N 46°00' W 083°54'7 7.3 160 / 191012.3 17.9 18.7
2016-Sep-26 03:00N 45°54' W 083°48'819.5 140 / 241013.7 18.7 18.6
2016-Sep-26 02:33N 45°46' W 083°44'1413.0
2016-Sep-26 01:28N 45°35' W 083°32'715.3
2016-Sep-26 01:00N 45°30' W 083°24'510.7 140 / 241015.7 19.3 19.0
2016-Sep-26 00:33N 45°26' W 083°21'814.5
2016-Sep-26 00:00N 45°18' W 083°18'1010.4 150 / 221017.1 19.4 19.3
2016-Sep-25 23:00N 45°12' W 083°06'1818.5 140 / 201017.4 19.1 19.4
2016-Sep-25 22:00N 44°54' W 083°00'1312.7 140 / 191018.1 20.0 20.6
2016-Sep-25 21:00N 44°42' W 082°54'1312.7 150 / 171019.127.0 1.520.6 20.6
2016-Sep-25 20:00N 44°30' W 082°48'2512.7 160 / 151020.127.0 1.520.0 20.5
2016-Sep-25 18:00N 44°06' W 082°36'1212.0 150 / 151022.1 20.2 21.1
2016-Sep-25 17:00N 43°54' W 082°36'1312.8 170 / 151023.2 20.0 20.6
2016-Sep-25 16:00N 43°42' W 082°30'1212.0 170 / 141023.5 17.9 20.6
2016-Sep-25 15:00N 43°30' W 082°30'1918.5 160 / 121023.8 16.5 20.2
2016-Sep-25 14:00N 43°12' W 082°24'6 6.0 130 / 141023.8 15.7 20.4
2016-Sep-25 13:00N 43°06' W 082°24'1312.8 120 / 121023.8 13.7 20.1
2016-Sep-25 12:00N 42°54' W 082°30'6 6.0 130 / 51023.8 10.4 20.3
2016-Sep-25 11:00N 42°48' W 082°30'0 0.0 090 / 21023.5 9.5 20.7
2016-Sep-25 10:00N 42°48' W 082°30'0 0.0 120 / 31023.5 10.4 21.4
2016-Sep-25 09:00N 42°48' W 082°30'0 0.0 120 / 51023.2 10.5 21.5
2016-Sep-25 08:00N 42°48' W 082°30'0 0.0 110 / 41023.5 11.0 21.5
2016-Sep-25 07:00N 42°48' W 082°30'0 0.0 090 / 51023.8 11.1 21.5
2016-Sep-25 06:00N 42°48' W 082°30'0 0.0 080 / 41024.2 12.7 21.6
2016-Sep-25 05:00N 42°48' W 082°30'0 0.0 060 / 31024.2 11.8 21.6
2016-Sep-25 04:00N 42°48' W 082°30'0 0.0 060 / 21024.2 12.3 21.6
2016-Sep-25 03:00N 42°48' W 082°30'0 0.0 070 / 41023.8 14.1 21.7
2016-Sep-25 02:00N 42°48' W 082°30'0 0.0 190 / 21023.8 15.1 21.7
2016-Sep-25 01:00N 42°48' W 082°30'0 0.0 1023.8 14.1 21.7
2016-Sep-25 00:00N 42°48' W 082°30'0 0.0 300 / 11023.8 14.7 22.0
2016-Sep-24 23:00N 42°48' W 082°30'0 0.0 080 / 31024.2 16.8 22.0
2016-Sep-24 22:00N 42°48' W 082°30'0 0.0 280 / 31023.8 17.4 22.0
2016-Sep-24 21:00N 42°48' W 082°30'0 0.0 360 / 31023.8 17.7 21.9
2016-Sep-24 20:00N 42°48' W 082°30'0 0.0 060 / 31023.8 17.8 21.9
2016-Sep-24 19:00N 42°48' W 082°30'0 0.0 030 / 41024.8 17.3 21.6
2016-Sep-24 18:00N 42°48' W 082°30'1312.8 360 / 101025.2 17.5 20.7
2016-Sep-24 17:00N 43°00' W 082°24'6 6.0 030 / 121025.9 16.4 20.6
2016-Sep-24 16:00N 43°06' W 082°24'1212.0 060 / 101026.2 14.4 20.7
2016-Sep-24 15:00N 43°18' W 082°24'1212.0 040 / 141026.5 14.4 20.9
2016-Sep-24 14:00N 43°30' W 082°24'1312.8 070 / 181026.2 14.4 21.0
2016-Sep-24 13:00N 43°42' W 082°30'1212.0 070 / 191026.210.8 1.014.7 21.3
2016-Sep-24 12:00N 43°54' W 082°30'1312.8 060 / 151025.5 15.0 21.3
2016-Sep-24 11:00N 44°06' W 082°36'1312.7 060 / 141025.2 15.0 21.3
2016-Sep-24 10:00N 44°18' W 082°42'7 7.4 060 / 151024.5 15.2 21.0
2016-Sep-24 09:00N 44°24' W 082°48'2412.2 050 / 161024.527.0 1.015.0 20.6
2016-Sep-24 07:00N 44°48' W 082°54'1312.7 060 / 161024.510.8 2.015.5 20.8
2016-Sep-24 06:00N 45°00' W 083°00'1312.7 060 / 161024.810.8 2.515.2 20.1
2016-Sep-24 05:00N 45°12' W 083°06'1010.4 070 / 131024.5 15.1 19.2
2016-Sep-24 04:00N 45°18' W 083°18'1514.7 060 / 141024.8 15.2 19.1
2016-Sep-24 03:00N 45°30' W 083°30'2212.1 060 / 151024.5 15.5 18.9
2016-Sep-24 01:11N 45°49' W 083°45'811.9
2016-Sep-24 00:31N 45°55' W 083°52'5 9.3
2016-Sep-24 00:00N 46°00' W 083°54'7 7.3 250 / 31024.5 14.8 18.8
2016-Sep-23 23:00N 46°06' W 084°00'1010.3 090 / 21024.5 16.1 19.3
2016-Sep-23 22:00N 46°12' W 084°12'6 6.0 090 / 21024.2 16.8 19.1
2016-Sep-23 21:00N 46°18' W 084°12'7 7.3 040 / 41024.2 17.0 19.4
2016-Sep-23 20:00N 46°24' W 084°18'6 6.0 150 / 21023.8 17.2 19.2
2016-Sep-23 19:00N 46°30' W 084°18'4 4.1 080 / 51024.5 16.6 19.2
2016-Sep-23 18:00N 46°30' W 084°24'0 0.0 070 / 41025.4 17.1 19.2
2016-Sep-23 17:00N 46°30' W 084°24'0 0.0 160 / 41025.4 16.1 19.0
2016-Sep-23 16:00N 46°30' W 084°24'4 4.1 090 / 51025.4 14.6 18.9
2016-Sep-23 15:00N 46°30' W 084°30'1010.2 100 / 51025.4 13.6 18.9
2016-Sep-23 14:00N 46°36' W 084°42'1010.2 040 / 131025.1 12.5 18.9
2016-Sep-23 13:00N 46°42' W 084°54'1514.5 120 / 141024.7 11.9 18.4
2016-Sep-23 12:00N 46°54' W 085°06'2110.7 070 / 141024.4 12.6 17.8
2016-Sep-23 10:00N 47°00' W 085°36'6212.4 050 / 161023.4 13.5 17.7
2016-Sep-23 05:00N 47°24' W 087°00'1010.1 030 / 101022.0 15.3 18.4
2016-Sep-23 04:00N 47°30' W 087°12'1413.5 010 / 121022.4 15.2 18.1
2016-Sep-23 03:00N 47°36' W 087°30'1212.1 340 / 111022.4 15.1 18.0
2016-Sep-23 02:00N 47°36' W 087°48'1212.1 350 / 81022.0 15.1 19.2
2016-Sep-23 01:00N 47°36' W 088°06'1212.1 020 / 61022.0 15.2 18.7
2016-Sep-23 00:00N 47°36' W 088°24'1413.5 030 / 71021.7 15.6 18.9
2016-Sep-22 23:00N 47°30' W 088°42'1212.2 030 / 121021.027.0 1.515.6 18.3
2016-Sep-22 22:00N 47°30' W 089°00'1212.2 050 / 51020.7 15.4 18.0
2016-Sep-22 21:00N 47°30' W 089°18'1010.1 010 / 51021.0 14.6 17.7
2016-Sep-22 20:00N 47°24' W 089°30'1212.2 070 / 71020.727.0 1.514.8 17.4
2016-Sep-22 19:00N 47°24' W 089°48'1413.6 030 / 141020.0 14.9 16.9
2016-Sep-22 18:00N 47°18' W 090°06'1212.2 020 / 141020.0 14.5 15.3
2016-Sep-22 17:00N 47°18' W 090°24'8 8.1 020 / 131020.3 14.1 14.3
2016-Sep-22 16:00N 47°18' W 090°36'2713.6 010 / 161020.3 13.6 14.3
2016-Sep-22 14:00N 47°06' W 091°12'2011.2 030 / 151019.6 13.6 14.6
2016-Sep-22 12:14N 46°57' W 091°37'417.0
2016-Sep-22 12:00N 46°54' W 091°42'1010.2 020 / 171019.310.8 2.013.1 14.0
2016-Sep-22 11:00N 46°48' W 091°54'8 8.2 040 / 171019.0 13.6 15.0
2016-Sep-22 10:00N 46°48' W 092°06'6 6.0 050 / 201019.0 13.5 16.8
2016-Sep-22 09:00N 46°42' W 092°06'0 0.0 030 / 201018.6 14.2 19.0
2016-Sep-22 08:00N 46°42' W 092°06'0 0.0 040 / 191019.0 15.2 19.3
2016-Sep-22 07:00N 46°42' W 092°06'0 0.0 050 / 171018.6 15.5 18.2
2016-Sep-22 06:00N 46°42' W 092°06'0 0.0 050 / 141018.6 15.7 18.0
2016-Sep-22 05:00N 46°42' W 092°06'3 5.5 060 / 131018.6 15.7 18.1
2016-Sep-22 04:31N 46°45' W 092°07'0 0.0
2016-Sep-22 03:31N 46°45' W 092°07'0 0.0
2016-Sep-22 00:31N 46°45' W 092°07'2 1.6
2016-Sep-21 23:33N 46°46' W 092°06'4 8.1
2016-Sep-21 23:00N 46°48' W 092°00'614.0 060 / 151020.710.8 1.516.4 14.4
2016-Sep-21 22:33N 46°51' W 091°52'813.4
2016-Sep-21 22:00N 46°54' W 091°42'1413.7 040 / 161020.3 14.7 14.2
2016-Sep-21 21:00N 47°00' W 091°24'1212.3 040 / 141020.3 16.3 15.4
2016-Sep-21 20:00N 47°00' W 091°06'1413.7 040 / 131021.0 16.7 15.8
2016-Sep-21 19:00N 47°06' W 090°48'1413.6 060 / 101021.010.8 0.515.3 15.9
2016-Sep-21 18:00N 47°12' W 090°30'1212.2 090 / 101022.0 16.1 14.3
2016-Sep-21 17:00N 47°12' W 090°12'1413.6 090 / 111023.0 16.3 16.8
2016-Sep-21 16:00N 47°18' W 089°54'1212.2 060 / 101023.4 16.2 17.7
2016-Sep-21 15:00N 47°18' W 089°36'1413.6 030 / 101023.4 16.6 18.5
2016-Sep-21 14:00N 47°24' W 089°18'1616.2 030 / 121022.410.8 0.516.5 18.1
2016-Sep-21 13:00N 47°24' W 088°54'1212.2 020 / 101021.7 16.8 18.6
2016-Sep-21 12:00N 47°24' W 088°36'1413.6 010 / 131021.3 17.0 19.5
2016-Sep-21 11:00N 47°30' W 088°18'1212.2 350 / 151020.3 17.2 19.5
2016-Sep-21 10:00N 47°30' W 088°00'1212.2 330 / 161019.627.0 1.517.5 19.7
2016-Sep-21 09:00N 47°30' W 087°42'1010.1 270 / 101020.0 18.3 19.1
2016-Sep-21 08:00N 47°24' W 087°30'1212.2 280 / 121019.3 18.7 18.8
2016-Sep-21 07:00N 47°24' W 087°12'8712.4 280 / 81019.0 17.7 18.6
2016-Sep-21 00:00N 46°54' W 085°12'1413.7 220 / 131018.327.0 1.519.1 18.3
2016-Sep-20 23:00N 46°48' W 084°54'1312.7 250 / 161017.9 22.1 18.8
2016-Sep-20 22:00N 46°36' W 084°48'1010.2 240 / 121018.3 21.8 19.7
2016-Sep-20 21:00N 46°30' W 084°36'8 8.3 220 / 61018.3 21.2 19.5
2016-Sep-20 20:00N 46°30' W 084°24'4 4.1 240 / 111018.3 22.4 19.5
2016-Sep-20 19:00N 46°30' W 084°18'6 6.0 250 / 81018.8 21.8 19.6
2016-Sep-20 18:00N 46°24' W 084°18'7 7.3 240 / 101019.1 21.8 19.5
2016-Sep-20 17:00N 46°18' W 084°12'7 7.3 290 / 161019.1 21.1 19.3
2016-Sep-20 16:00N 46°12' W 084°06'7 7.3 260 / 231019.1 20.4 19.6
2016-Sep-20 15:00N 46°06' W 084°00'1314.7 230 / 81019.1 18.6 18.7
2016-Sep-20 14:08N 45°54' W 083°52'110.3
2016-Sep-20 14:00N 45°54' W 083°54'817.3 240 / 111019.1 5.4 1.017.7 18.4
2016-Sep-20 13:31N 45°48' W 083°46'2811.3
2016-Sep-20 11:00N 45°24' W 083°24'921.0 260 / 121018.1 17.0 19.5
2016-Sep-20 10:33N 45°17' W 083°16'5 9.7
2016-Sep-20 10:00N 45°12' W 083°12'1312.7 250 / 151018.1 17.2 19.3
2016-Sep-20 09:00N 45°00' W 083°06'817.5 260 / 181017.7 18.6 19.9
2016-Sep-20 08:33N 44°53' W 083°01'1811.5
2016-Sep-20 07:00N 44°36' W 082°54'1312.7 270 / 161017.4 20.5 21.3
2016-Sep-20 06:00N 44°24' W 082°48'   280 / 81017.110.8 1.020.7 21.2
Track history (hours):
 
Tides and Currents Weather Stations Pressure Air Temp Water Temp Dewpoint Dewpoint Depression Visibility Wind Speed Wind Dir Waves Ship Positions

Paul R Tregurtha

Owner: THE INTERLAKE STEAMSHIP COMPANY, Middleburg Heights, OH. More information available from US FCC via Universal Licensing System and Coast Guard Vessel Documentation Center.

Last reported at 2016-Sep-30 06:00 UTC. Time now 2016-Sep-30 09:58 UTC.
Position N 45°06' W 083°00'.

Length 309 m; draft 7.3 m.

Type: Cargo ship. MMSI: 366904940.

Wind from 070 at 20 knots

Waves 2.0 meters (7 feet)

Barometer 1027.6 mb
Air temperature 16.5 ° C
Visibility: greater than 10.8 NM
Water temperature 15.7 ° C

Date/timePositionNaut miles runAvg speedWind from/ knotsBaromVisibWave heightAir tempDewpointWater temp
2016-Sep-30 06:00N 45°06' W 083°00'4111.7 070 / 201027.610.8 2.016.5 15.7
2016-Sep-30 02:28N 45°40' W 083°32'1711.8
2016-Sep-30 01:00N 45°54' W 083°48'7 7.3 060 / 141029.2 17.5 17.5
2016-Sep-30 00:00N 46°00' W 083°54'812.9 070 / 91029.6 17.8 17.9
2016-Sep-29 23:20N 46°07' W 084°01'514.7
2016-Sep-29 23:00N 46°12' W 084°00'8 8.3 080 / 81029.6 18.5 17.7
2016-Sep-29 22:00N 46°12' W 084°12'610.6 040 / 51029.6 20.9 17.4
2016-Sep-29 21:27N 46°18' W 084°13'1 1.5
2016-Sep-29 21:00N 46°18' W 084°12'13 6.3 070 / 111029.2 21.2 17.4
2016-Sep-29 19:00N 46°30' W 084°18'4 4.1 050 / 71029.9 21.2 17.3
2016-Sep-29 18:00N 46°30' W 084°24'0 0.0 100 / 81030.1 20.9 17.4
2016-Sep-29 17:00N 46°30' W 084°24'4 4.1 080 / 91030.5 19.6 17.3
2016-Sep-29 16:00N 46°30' W 084°30'4 4.1 080 / 61030.5 17.4 17.2
2016-Sep-29 15:00N 46°30' W 084°36'7 7.3 100 / 61030.8 15.7 17.7
2016-Sep-29 14:00N 46°36' W 084°42'4 4.1 130 / 81030.5 15.0 17.8
2016-Sep-29 13:00N 46°36' W 084°48'1312.7 050 / 101029.8 14.4 17.7
2016-Sep-29 12:00N 46°48' W 084°54'1413.7 060 / 121029.527.0 1.515.4 17.3
2016-Sep-29 11:00N 46°54' W 085°12'1413.7 040 / 121029.1 15.8 17.0
2016-Sep-29 10:00N 47°00' W 085°30'1010.1 030 / 151028.8 14.7 16.1
2016-Sep-29 09:00N 47°06' W 085°42'6911.6 030 / 151028.427.0 1.015.0 16.4
2016-Sep-29 03:00N 47°30' W 087°18'1413.5 020 / 181028.1 14.1 16.4
2016-Sep-29 02:00N 47°36' W 087°36'1212.1 020 / 151027.4 13.4 14.8
2016-Sep-29 01:00N 47°36' W 087°54'1212.1 020 / 121027.1 13.5 17.3
2016-Sep-29 00:00N 47°36' W 088°12'1212.1 030 / 101027.1 13.6 16.8
2016-Sep-28 23:00N 47°36' W 088°30'1413.5 090 / 91026.1 13.8 16.3
2016-Sep-28 22:00N 47°30' W 088°48'8 8.1 030 / 91025.7 13.5 14.0
2016-Sep-28 21:00N 47°30' W 089°00'1212.2 050 / 71024.7 12.6 12.5
2016-Sep-28 20:00N 47°30' W 089°18'1413.6 020 / 101024.0 13.0 13.6
2016-Sep-28 19:00N 47°24' W 089°36'1212.2 040 / 131023.4 13.4 13.9
2016-Sep-28 18:00N 47°24' W 089°54'1413.6 030 / 121023.0 13.0 11.4
2016-Sep-28 17:00N 47°18' W 090°12'1212.2 020 / 151022.7 11.6 9.4
2016-Sep-28 16:00N 47°18' W 090°30'1010.1 020 / 141022.4 11.4 9.3
2016-Sep-28 15:00N 47°12' W 090°42'1212.2 010 / 121021.7 10.5 8.8
2016-Sep-28 14:00N 47°12' W 091°00'1413.6 360 / 161020.0 5.4 1.011.4 11.3
2016-Sep-28 13:00N 47°06' W 091°18'1010.1 1019.0 12.1 11.9
2016-Sep-28 12:00N 47°00' W 091°30'1413.7 360 / 171018.3 10.3 12.0
2016-Sep-28 11:00N 46°54' W 091°48'1010.2 340 / 151017.3 10.9 10.2
2016-Sep-28 10:00N 46°48' W 092°00'7 7.3 350 / 141016.3 12.0 13.2
2016-Sep-28 09:00N 46°42' W 092°06'3 5.1 1015.6 12.9 17.2
2016-Sep-28 08:28N 46°45' W 092°07'3 5.5
2016-Sep-28 08:00N 46°42' W 092°06'0 0.0 010 / 141014.6 12.6 16.8
2016-Sep-28 07:00N 46°42' W 092°06'0 0.0 350 / 181013.5 12.4 16.8
2016-Sep-28 06:00N 46°42' W 092°06'0 0.0 340 / 211012.5 12.1 16.9
2016-Sep-28 05:00N 46°42' W 092°06'0 0.0 350 / 201012.2 12.3 15.7
2016-Sep-28 04:00N 46°42' W 092°06'3 5.6 090 / 181011.5 11.8 15.7
2016-Sep-28 03:31N 46°45' W 092°07'3 5.0
2016-Sep-28 03:00N 46°42' W 092°06'3 3.9 340 / 141011.2 11.7 15.7
2016-Sep-28 02:19N 46°45' W 092°07'3 8.1
2016-Sep-28 02:00N 46°42' W 092°06'3 5.6 180 / 21010.8 11.7 15.6
2016-Sep-28 01:31N 46°45' W 092°07'3 5.0
2016-Sep-28 01:00N 46°42' W 092°06'0 0.0 020 / 51010.5 11.2 15.6
2016-Sep-28 00:00N 46°42' W 092°06'3 6.1 060 / 41009.8 11.4 15.5
2016-Sep-27 23:33N 46°45' W 092°07'3 6.2
2016-Sep-27 23:00N 46°48' W 092°06'0 0.0 010 / 61009.1 11.0 15.2
2016-Sep-27 22:00N 46°48' W 092°06'0 0.0 320 / 61008.5 10.2 14.3
2016-Sep-27 21:00N 46°48' W 092°06'0 0.0 280 / 61008.1 10.2 14.2
2016-Sep-27 20:00N 46°48' W 092°06'2 5.6 250 / 61007.5 11.6 14.0
2016-Sep-27 19:33N 46°46' W 092°06'2 4.3
2016-Sep-27 19:00N 46°48' W 092°06'0 0.0 300 / 81006.8 12.0 14.2
2016-Sep-27 18:00N 46°48' W 092°06'1413.7 300 / 111006.4 11.2 10.5
2016-Sep-27 17:00N 46°54' W 091°48'1010.2 290 / 121005.110.8 1.010.4 7.6
2016-Sep-27 16:00N 47°00' W 091°36'1514.5 280 / 141004.4 10.1 8.5
2016-Sep-27 15:00N 47°12' W 091°24'1010.1 310 / 171003.710.8 0.510.4 10.1
2016-Sep-27 14:00N 47°18' W 091°12'1413.6 340 / 121003.7 9.8 14.2
2016-Sep-27 13:00N 47°24' W 090°54'2110.6 310 / 171002.4 10.7 13.7
2016-Sep-27 11:00N 47°30' W 090°24'1212.2 310 / 24999.3 10.9 12.9
2016-Sep-27 10:00N 47°30' W 090°06'1212.2 310 / 22999.3 11.2 13.5
2016-Sep-27 09:00N 47°30' W 089°48'8 8.1 290 / 19999.0 11.8 14.1
2016-Sep-27 08:00N 47°30' W 089°36'1212.2 310 / 20998.310.8 3.012.3 14.7
2016-Sep-27 07:00N 47°30' W 089°18'1212.2 300 / 20998.010.8 2.512.4 14.0
2016-Sep-27 06:00N 47°30' W 089°00'8 8.1 270 / 17998.0 12.1 13.1
2016-Sep-27 05:00N 47°30' W 088°48'8 8.1 290 / 20997.610.8 4.512.3 14.4
2016-Sep-27 04:00N 47°30' W 088°36'8 8.1 270 / 21998.3 12.2 15.6
2016-Sep-27 03:00N 47°30' W 088°24'8 8.1 260 / 31997.6 12.2 18.1
2016-Sep-27 02:00N 47°30' W 088°12'8 8.1 260 / 27998.3 12.7 18.2
2016-Sep-27 01:00N 47°30' W 088°00'8 8.1 260 / 33997.6 12.8 18.0
2016-Sep-27 00:00N 47°30' W 087°48'8 8.1 250 / 30998.3 12.8 16.0
2016-Sep-26 23:00N 47°30' W 087°36'1010.1 230 / 25999.7 12.0 14.6
2016-Sep-26 22:00N 47°24' W 087°24'1010.1 240 / 32999.3 12.5 14.4
2016-Sep-26 21:00N 47°18' W 087°12'8 8.1 240 / 31999.310.8 4.513.2 18.1
2016-Sep-26 20:00N 47°18' W 087°00'1212.2 250 / 29999.3 12.3 17.9
2016-Sep-26 19:00N 47°18' W 086°42'6611.0 230 / 291000.010.8 3.012.4 17.5
2016-Sep-26 13:00N 46°54' W 085°12'1413.7 210 / 201003.7 15.0 17.5
2016-Sep-26 12:00N 46°48' W 084°54'1312.7 210 / 161004.7 15.8 17.9
2016-Sep-26 11:00N 46°36' W 084°48'1010.2 160 / 191005.4 14.9 18.5
2016-Sep-26 10:00N 46°30' W 084°36'8 8.3 130 / 151006.4 15.2 18.3
2016-Sep-26 09:00N 46°30' W 084°24'4 4.1 180 / 81007.5 14.2 18.7
2016-Sep-26 08:00N 46°30' W 084°18'6 6.0 140 / 121008.6 14.7 18.7
2016-Sep-26 07:00N 46°24' W 084°18'1010.2 140 / 121009.6 16.0 18.6
2016-Sep-26 06:00N 46°18' W 084°06'6 6.0 150 / 181011.0 14.8 18.7
2016-Sep-26 05:00N 46°12' W 084°06'1514.6 160 / 241011.6 17.3 18.7
2016-Sep-26 04:00N 46°00' W 083°54'7 7.3 160 / 191012.3 17.9 18.7
2016-Sep-26 03:00N 45°54' W 083°48'819.5 140 / 241013.7 18.7 18.6
2016-Sep-26 02:33N 45°46' W 083°44'1413.0
2016-Sep-26 01:28N 45°35' W 083°32'715.3
2016-Sep-26 01:00N 45°30' W 083°24'510.7 140 / 241015.7 19.3 19.0
2016-Sep-26 00:33N 45°26' W 083°21'814.5
2016-Sep-26 00:00N 45°18' W 083°18'1010.4 150 / 221017.1 19.4 19.3
2016-Sep-25 23:00N 45°12' W 083°06'1818.5 140 / 201017.4 19.1 19.4
2016-Sep-25 22:00N 44°54' W 083°00'1312.7 140 / 191018.1 20.0 20.6
2016-Sep-25 21:00N 44°42' W 082°54'1312.7 150 / 171019.127.0 1.520.6 20.6
2016-Sep-25 20:00N 44°30' W 082°48'2512.7 160 / 151020.127.0 1.520.0 20.5
2016-Sep-25 18:00N 44°06' W 082°36'1212.0 150 / 151022.1 20.2 21.1
2016-Sep-25 17:00N 43°54' W 082°36'1312.8 170 / 151023.2 20.0 20.6
2016-Sep-25 16:00N 43°42' W 082°30'1212.0 170 / 141023.5 17.9 20.6
2016-Sep-25 15:00N 43°30' W 082°30'1918.5 160 / 121023.8 16.5 20.2
2016-Sep-25 14:00N 43°12' W 082°24'6 6.0 130 / 141023.8 15.7 20.4
2016-Sep-25 13:00N 43°06' W 082°24'1312.8 120 / 121023.8 13.7 20.1
2016-Sep-25 12:00N 42°54' W 082°30'6 6.0 130 / 51023.8 10.4 20.3
2016-Sep-25 11:00N 42°48' W 082°30'0 0.0 090 / 21023.5 9.5 20.7
2016-Sep-25 10:00N 42°48' W 082°30'0 0.0 120 / 31023.5 10.4 21.4
2016-Sep-25 09:00N 42°48' W 082°30'0 0.0 120 / 51023.2 10.5 21.5
2016-Sep-25 08:00N 42°48' W 082°30'0 0.0 110 / 41023.5 11.0 21.5
2016-Sep-25 07:00N 42°48' W 082°30'0 0.0 090 / 51023.8 11.1 21.5
2016-Sep-25 06:00N 42°48' W 082°30'0 0.0 080 / 41024.2 12.7 21.6
2016-Sep-25 05:00N 42°48' W 082°30'0 0.0 060 / 31024.2 11.8 21.6
2016-Sep-25 04:00N 42°48' W 082°30'0 0.0 060 / 21024.2 12.3 21.6
2016-Sep-25 03:00N 42°48' W 082°30'0 0.0 070 / 41023.8 14.1 21.7
2016-Sep-25 02:00N 42°48' W 082°30'0 0.0 190 / 21023.8 15.1 21.7
2016-Sep-25 01:00N 42°48' W 082°30'0 0.0 1023.8 14.1 21.7
2016-Sep-25 00:00N 42°48' W 082°30'0 0.0 300 / 11023.8 14.7 22.0
2016-Sep-24 23:00N 42°48' W 082°30'0 0.0 080 / 31024.2 16.8 22.0
2016-Sep-24 22:00N 42°48' W 082°30'0 0.0 280 / 31023.8 17.4 22.0
2016-Sep-24 21:00N 42°48' W 082°30'0 0.0 360 / 31023.8 17.7 21.9
2016-Sep-24 20:00N 42°48' W 082°30'0 0.0 060 / 31023.8 17.8 21.9
2016-Sep-24 19:00N 42°48' W 082°30'0 0.0 030 / 41024.8 17.3 21.6
2016-Sep-24 18:00N 42°48' W 082°30'1312.8 360 / 101025.2 17.5 20.7
2016-Sep-24 17:00N 43°00' W 082°24'6 6.0 030 / 121025.9 16.4 20.6
2016-Sep-24 16:00N 43°06' W 082°24'1212.0 060 / 101026.2 14.4 20.7
2016-Sep-24 15:00N 43°18' W 082°24'1212.0 040 / 141026.5 14.4 20.9
2016-Sep-24 14:00N 43°30' W 082°24'1312.8 070 / 181026.2 14.4 21.0
2016-Sep-24 13:00N 43°42' W 082°30'1212.0 070 / 191026.210.8 1.014.7 21.3
2016-Sep-24 12:00N 43°54' W 082°30'1312.8 060 / 151025.5 15.0 21.3
2016-Sep-24 11:00N 44°06' W 082°36'1312.7 060 / 141025.2 15.0 21.3
2016-Sep-24 10:00N 44°18' W 082°42'7 7.4 060 / 151024.5 15.2 21.0
2016-Sep-24 09:00N 44°24' W 082°48'2412.2 050 / 161024.527.0 1.015.0 20.6
2016-Sep-24 07:00N 44°48' W 082°54'1312.7 060 / 161024.510.8 2.015.5 20.8
2016-Sep-24 06:00N 45°00' W 083°00'1312.7 060 / 161024.810.8 2.515.2 20.1
2016-Sep-24 05:00N 45°12' W 083°06'1010.4 070 / 131024.5 15.1 19.2
2016-Sep-24 04:00N 45°18' W 083°18'1514.7 060 / 141024.8 15.2 19.1
2016-Sep-24 03:00N 45°30' W 083°30'2212.1 060 / 151024.5 15.5 18.9
2016-Sep-24 01:11N 45°49' W 083°45'811.9
2016-Sep-24 00:31N 45°55' W 083°52'5 9.3
2016-Sep-24 00:00N 46°00' W 083°54'7 7.3 250 / 31024.5 14.8 18.8
2016-Sep-23 23:00N 46°06' W 084°00'1010.3 090 / 21024.5 16.1 19.3
2016-Sep-23 22:00N 46°12' W 084°12'6 6.0 090 / 21024.2 16.8 19.1
2016-Sep-23 21:00N 46°18' W 084°12'7 7.3 040 / 41024.2 17.0 19.4
2016-Sep-23 20:00N 46°24' W 084°18'6 6.0 150 / 21023.8 17.2 19.2
2016-Sep-23 19:00N 46°30' W 084°18'4 4.1 080 / 51024.5 16.6 19.2
2016-Sep-23 18:00N 46°30' W 084°24'0 0.0 070 / 41025.4 17.1 19.2
2016-Sep-23 17:00N 46°30' W 084°24'0 0.0 160 / 41025.4 16.1 19.0
2016-Sep-23 16:00N 46°30' W 084°24'4 4.1 090 / 51025.4 14.6 18.9
2016-Sep-23 15:00N 46°30' W 084°30'1010.2 100 / 51025.4 13.6 18.9
2016-Sep-23 14:00N 46°36' W 084°42'1010.2 040 / 131025.1 12.5 18.9
2016-Sep-23 13:00N 46°42' W 084°54'1514.5 120 / 141024.7 11.9 18.4
2016-Sep-23 12:00N 46°54' W 085°06'2110.7 070 / 141024.4 12.6 17.8
2016-Sep-23 10:00N 47°00' W 085°36'6212.4 050 / 161023.4 13.5 17.7
2016-Sep-23 05:00N 47°24' W 087°00'1010.1 030 / 101022.0 15.3 18.4
2016-Sep-23 04:00N 47°30' W 087°12'1413.5 010 / 121022.4 15.2 18.1
2016-Sep-23 03:00N 47°36' W 087°30'1212.1 340 / 111022.4 15.1 18.0
2016-Sep-23 02:00N 47°36' W 087°48'1212.1 350 / 81022.0 15.1 19.2
2016-Sep-23 01:00N 47°36' W 088°06'1212.1 020 / 61022.0 15.2 18.7
2016-Sep-23 00:00N 47°36' W 088°24'1413.5 030 / 71021.7 15.6 18.9
2016-Sep-22 23:00N 47°30' W 088°42'1212.2 030 / 121021.027.0 1.515.6 18.3
2016-Sep-22 22:00N 47°30' W 089°00'1212.2 050 / 51020.7 15.4 18.0
2016-Sep-22 21:00N 47°30' W 089°18'1010.1 010 / 51021.0 14.6 17.7
2016-Sep-22 20:00N 47°24' W 089°30'1212.2 070 / 71020.727.0 1.514.8 17.4
2016-Sep-22 19:00N 47°24' W 089°48'1413.6 030 / 141020.0 14.9 16.9
2016-Sep-22 18:00N 47°18' W 090°06'1212.2 020 / 141020.0 14.5 15.3
2016-Sep-22 17:00N 47°18' W 090°24'8 8.1 020 / 131020.3 14.1 14.3
2016-Sep-22 16:00N 47°18' W 090°36'2713.6 010 / 161020.3 13.6 14.3
2016-Sep-22 14:00N 47°06' W 091°12'2011.2 030 / 151019.6 13.6 14.6
2016-Sep-22 12:14N 46°57' W 091°37'417.0
2016-Sep-22 12:00N 46°54' W 091°42'1010.2 020 / 171019.310.8 2.013.1 14.0
2016-Sep-22 11:00N 46°48' W 091°54'8 8.2 040 / 171019.0 13.6 15.0
2016-Sep-22 10:00N 46°48' W 092°06'6 6.0 050 / 201019.0 13.5 16.8
2016-Sep-22 09:00N 46°42' W 092°06'0 0.0 030 / 201018.6 14.2 19.0
2016-Sep-22 08:00N 46°42' W 092°06'0 0.0 040 / 191019.0 15.2 19.3
2016-Sep-22 07:00N 46°42' W 092°06'0 0.0 050 / 171018.6 15.5 18.2
2016-Sep-22 06:00N 46°42' W 092°06'0 0.0 050 / 141018.6 15.7 18.0
2016-Sep-22 05:00N 46°42' W 092°06'3 5.5 060 / 131018.6 15.7 18.1
2016-Sep-22 04:31N 46°45' W 092°07'0 0.0
2016-Sep-22 03:31N 46°45' W 092°07'0 0.0
2016-Sep-22 00:31N 46°45' W 092°07'2 1.6
2016-Sep-21 23:33N 46°46' W 092°06'4 8.1
2016-Sep-21 23:00N 46°48' W 092°00'614.0 060 / 151020.710.8 1.516.4 14.4
2016-Sep-21 22:33N 46°51' W 091°52'813.4
2016-Sep-21 22:00N 46°54' W 091°42'1413.7 040 / 161020.3 14.7 14.2
2016-Sep-21 21:00N 47°00' W 091°24'1212.3 040 / 141020.3 16.3 15.4
2016-Sep-21 20:00N 47°00' W 091°06'1413.7 040 / 131021.0 16.7 15.8
2016-Sep-21 19:00N 47°06' W 090°48'1413.6 060 / 101021.010.8 0.515.3 15.9
2016-Sep-21 18:00N 47°12' W 090°30'1212.2 090 / 101022.0 16.1 14.3
2016-Sep-21 17:00N 47°12' W 090°12'1413.6 090 / 111023.0 16.3 16.8
2016-Sep-21 16:00N 47°18' W 089°54'1212.2 060 / 101023.4 16.2 17.7
2016-Sep-21 15:00N 47°18' W 089°36'1413.6 030 / 101023.4 16.6 18.5
2016-Sep-21 14:00N 47°24' W 089°18'1616.2 030 / 121022.410.8 0.516.5 18.1
2016-Sep-21 13:00N 47°24' W 088°54'1212.2 020 / 101021.7 16.8 18.6
2016-Sep-21 12:00N 47°24' W 088°36'1413.6 010 / 131021.3 17.0 19.5
2016-Sep-21 11:00N 47°30' W 088°18'1212.2 350 / 151020.3 17.2 19.5
2016-Sep-21 10:00N 47°30' W 088°00'1212.2 330 / 161019.627.0 1.517.5 19.7
2016-Sep-21 09:00N 47°30' W 087°42'1010.1 270 / 101020.0 18.3 19.1
2016-Sep-21 08:00N 47°24' W 087°30'1212.2 280 / 121019.3 18.7 18.8
2016-Sep-21 07:00N 47°24' W 087°12'8712.4 280 / 81019.0 17.7 18.6
2016-Sep-21 00:00N 46°54' W 085°12'1413.7 220 / 131018.327.0 1.519.1 18.3
2016-Sep-20 23:00N 46°48' W 084°54'1312.7 250 / 161017.9 22.1 18.8
2016-Sep-20 22:00N 46°36' W 084°48'1010.2 240 / 121018.3 21.8 19.7
2016-Sep-20 21:00N 46°30' W 084°36'8 8.3 220 / 61018.3 21.2 19.5
2016-Sep-20 20:00N 46°30' W 084°24'4 4.1 240 / 111018.3 22.4 19.5
2016-Sep-20 19:00N 46°30' W 084°18'6 6.0 250 / 81018.8 21.8 19.6
2016-Sep-20 18:00N 46°24' W 084°18'7 7.3 240 / 101019.1 21.8 19.5
2016-Sep-20 17:00N 46°18' W 084°12'7 7.3 290 / 161019.1 21.1 19.3
2016-Sep-20 16:00N 46°12' W 084°06'7 7.3 260 / 231019.1 20.4 19.6
2016-Sep-20 15:00N 46°06' W 084°00'1314.7 230 / 81019.1 18.6 18.7
2016-Sep-20 14:08N 45°54' W 083°52'110.3
2016-Sep-20 14:00N 45°54' W 083°54'817.3 240 / 111019.1 5.4 1.017.7 18.4
2016-Sep-20 13:31N 45°48' W 083°46'2811.3
2016-Sep-20 11:00N 45°24' W 083°24'921.0 260 / 121018.1 17.0 19.5
2016-Sep-20 10:33N 45°17' W 083°16'5 9.7
2016-Sep-20 10:00N 45°12' W 083°12'1312.7 250 / 151018.1 17.2 19.3
2016-Sep-20 09:00N 45°00' W 083°06'817.5 260 / 181017.7 18.6 19.9
2016-Sep-20 08:33N 44°53' W 083°01'1811.5
2016-Sep-20 07:00N 44°36' W 082°54'1312.7 270 / 161017.4 20.5 21.3
2016-Sep-20 06:00N 44°24' W 082°48'   280 / 81017.110.8 1.020.7 21.2

Dump ship's entire track history